createdAt,value
2019-04-28T00:01:02.115Z,75.20
2019-04-28T00:03:31.925Z,74.30
2019-04-28T00:06:01.193Z,74.50
2019-04-28T00:08:31.758Z,74.90
2019-04-28T00:11:01.800Z,74.90
2019-04-28T00:13:32.093Z,73.80
2019-04-28T00:16:01.596Z,74.60
2019-04-28T00:18:31.699Z,74.70
2019-04-28T00:21:11.034Z,74.60
2019-04-28T00:23:57.929Z,74.20
2019-04-28T00:26:40.942Z,73.10
2019-04-28T00:29:11.098Z,73.40
2019-04-28T00:31:41.340Z,74.70
2019-04-28T00:34:11.487Z,74.80
2019-04-28T00:36:43.061Z,75.20
2019-04-28T00:39:12.055Z,75.60
2019-04-28T00:41:42.093Z,77.50
2019-04-28T00:44:11.945Z,77.50
2019-04-28T00:46:42.293Z,78.10
2019-04-28T00:49:11.811Z,78.00
2019-04-28T00:51:41.467Z,79.50
2019-04-28T00:54:12.092Z,81.30
2019-04-28T00:56:41.771Z,80.50
2019-04-28T00:59:11.810Z,81.90
2019-04-28T01:01:42.604Z,81.60
2019-04-28T01:04:11.834Z,81.80
2019-04-28T01:06:40.567Z,81.00
2019-04-28T01:09:11.728Z,81.90
2019-04-28T01:11:41.417Z,82.50
2019-04-28T01:14:11.484Z,83.10
2019-04-28T01:16:41.955Z,83.30
2019-04-28T01:19:12.267Z,84.50
2019-04-28T01:21:57.800Z,85.10
2019-04-28T01:24:26.566Z,84.80
2019-04-28T01:26:56.409Z,86.60
2019-04-28T01:29:25.168Z,87.30
2019-04-28T01:31:55.493Z,87.30
2019-04-28T01:34:24.330Z,87.10
2019-04-28T01:37:29.614Z,85.90
2019-04-28T01:42:44.860Z,87.60
2019-04-28T01:45:31.355Z,87.00
2019-04-28T01:50:46.242Z,86.80
2019-04-28T01:53:14.961Z,87.70
2019-04-28T01:56:20.489Z,86.80
2019-04-28T01:58:49.942Z,85.20
2019-04-28T02:01:20.403Z,84.90
2019-04-28T02:04:06.873Z,86.30
2019-04-28T02:06:54.093Z,84.40
2019-04-28T02:10:00.696Z,84.90
2019-04-28T02:12:30.382Z,85.50
2019-04-28T02:15:01.066Z,85.80
2019-04-28T02:17:47.189Z,86.70
2019-04-28T02:20:51.670Z,85.20
2019-04-28T02:23:39.675Z,85.60
2019-04-28T02:26:09.702Z,85.60
2019-04-28T02:29:14.965Z,85.90
2019-04-28T02:35:06.700Z,86.70
2019-04-28T02:37:53.487Z,85.90
2019-04-28T02:40:40.643Z,86.20
2019-04-28T02:46:50.788Z,85.60
2019-04-28T02:49:51.254Z,86.20
2019-04-28T02:52:55.727Z,85.60
2019-04-28T02:56:01.031Z,85.80
2019-04-28T02:58:31.245Z,85.70
2019-04-28T03:01:25.876Z,86.30
2019-04-28T03:04:24.988Z,85.40
2019-04-28T03:07:14.388Z,84.80
2019-04-28T03:09:42.000Z,85.50
2019-04-28T03:12:31.158Z,85.80
2019-04-28T03:15:34.879Z,85.40
2019-04-28T03:18:21.800Z,85.00
2019-04-28T03:20:51.505Z,85.70
2019-04-28T03:23:56.986Z,85.80
2019-04-28T03:26:45.469Z,86.90
2019-04-28T03:29:33.821Z,85.30
2019-04-28T03:32:39.781Z,85.90
2019-04-28T03:35:03.057Z,85.90
2019-04-28T03:37:47.255Z,85.90
2019-04-28T03:40:33.947Z,86.00
2019-04-28T03:43:40.592Z,87.30
2019-04-28T03:49:34.009Z,88.60
2019-04-28T03:52:04.289Z,89.40
2019-04-28T03:54:33.016Z,89.70
2019-04-28T03:57:01.579Z,89.40
2019-04-28T03:59:50.939Z,90.00
2019-04-28T04:05:41.400Z,89.90
2019-04-28T04:08:47.241Z,90.70
2019-04-28T04:11:20.382Z,91.00
2019-04-28T04:13:53.605Z,91.30
2019-04-28T04:16:32.897Z,90.80
2019-04-28T04:19:03.235Z,90.60
2019-04-28T04:21:31.872Z,90.40
2019-04-28T04:24:01.202Z,90.80
2019-04-28T04:26:32.868Z,90.30
2019-04-28T04:29:01.120Z,88.10
2019-04-28T04:31:31.770Z,89.80
2019-04-28T04:34:03.014Z,90.00
2019-04-28T04:36:31.151Z,89.60
2019-04-28T04:39:01.778Z,89.80
2019-04-28T04:41:30.630Z,89.10
2019-04-28T04:44:01.087Z,89.40
2019-04-28T04:46:31.350Z,89.40
2019-04-28T04:49:00.803Z,89.40
2019-04-28T04:51:30.555Z,90.20
2019-04-28T04:54:01.021Z,89.00
2019-04-28T04:56:30.294Z,88.80
2019-04-28T04:59:02.196Z,88.60
2019-04-28T05:01:33.989Z,88.90
2019-04-28T05:04:07.320Z,89.90
2019-04-28T05:09:09.980Z,90.00
2019-04-28T05:11:39.997Z,90.30
2019-04-28T05:16:39.851Z,90.10
2019-04-28T05:19:10.202Z,90.60
2019-04-28T05:21:40.177Z,90.50
2019-04-28T05:24:27.142Z,90.20
2019-04-28T05:26:55.748Z,90.30
2019-04-28T05:29:26.988Z,91.00
2019-04-28T05:31:58.665Z,90.50
2019-04-28T05:36:53.601Z,90.20
2019-04-28T05:39:22.188Z,90.60
2019-04-28T05:41:50.961Z,90.60
2019-04-28T05:44:20.271Z,90.60
2019-04-28T05:46:50.615Z,90.30
2019-04-28T05:49:29.851Z,89.70
2019-04-28T05:52:03.270Z,89.10
2019-04-28T05:54:52.014Z,88.70
2019-04-28T05:57:28.191Z,88.80
2019-04-28T06:00:00.978Z,88.30
2019-04-28T06:02:33.411Z,87.80
2019-04-28T06:05:02.060Z,88.00
2019-04-28T06:07:40.392Z,86.80
2019-04-28T06:10:10.177Z,86.70
2019-04-28T06:12:40.511Z,87.00
2019-04-28T06:15:10.376Z,87.40
2019-04-28T06:17:39.910Z,87.40
2019-04-28T06:20:11.412Z,86.20
2019-04-28T06:22:39.436Z,86.60
2019-04-28T06:25:08.208Z,87.50
2019-04-28T06:27:36.846Z,88.20
2019-04-28T06:30:06.951Z,88.80
2019-04-28T06:32:36.140Z,86.50
2019-04-28T06:35:06.255Z,87.60
2019-04-28T06:37:34.868Z,88.20
2019-04-28T06:40:05.958Z,88.70
2019-04-28T06:42:34.567Z,86.10
2019-04-28T06:45:03.622Z,86.70
2019-04-28T06:47:32.326Z,86.00
2019-04-28T06:50:01.012Z,85.70
2019-04-28T06:52:29.679Z,86.00
2019-04-28T06:54:58.433Z,84.70
2019-04-28T06:57:27.078Z,85.70
2019-04-28T06:59:55.784Z,84.60
2019-04-28T07:02:24.479Z,83.10
2019-04-28T07:05:01.684Z,83.10
2019-04-28T07:07:23.601Z,82.50
2019-04-28T07:09:52.216Z,82.00
2019-04-28T07:12:21.112Z,79.90
2019-04-28T07:14:49.755Z,80.60
2019-04-28T07:17:18.383Z,80.70
2019-04-28T07:19:48.726Z,80.30
2019-04-28T07:22:19.010Z,80.30
2019-04-28T07:24:47.638Z,79.50
2019-04-28T07:27:16.297Z,79.20
2019-04-28T07:29:45.008Z,78.50
2019-04-28T07:32:13.609Z,78.30
2019-04-28T07:34:42.155Z,79.80
2019-04-28T07:37:11.058Z,80.80
2019-04-28T07:39:39.692Z,81.00
2019-04-28T07:42:08.973Z,80.80
2019-04-28T07:44:37.689Z,78.70
2019-04-28T07:47:06.843Z,77.70
2019-04-28T07:49:35.379Z,76.20
2019-04-28T07:52:24.186Z,76.30
2019-04-28T07:54:53.111Z,75.60
2019-04-28T07:57:24.070Z,75.70
2019-04-28T07:59:52.876Z,73.50
2019-04-28T08:02:21.577Z,72.80
2019-04-28T08:04:50.756Z,73.20
2019-04-28T08:07:19.388Z,72.40
2019-04-28T08:09:47.970Z,72.90
2019-04-28T08:12:16.629Z,74.00
2019-04-28T08:17:13.603Z,73.40
2019-04-28T08:19:42.441Z,75.10
2019-04-28T08:22:11.067Z,75.40
2019-04-28T08:24:39.642Z,74.40
2019-04-28T08:27:08.357Z,73.50
2019-04-28T08:29:37.034Z,74.30
2019-04-28T08:32:10.345Z,74.00
2019-04-28T08:34:39.056Z,71.50
2019-04-28T08:37:07.703Z,71.00
2019-04-28T08:39:36.504Z,69.30
2019-04-28T08:42:05.431Z,69.60
2019-04-28T08:44:33.998Z,69.60
2019-04-28T08:47:02.705Z,68.60
2019-04-28T08:49:31.315Z,69.00
2019-04-28T08:51:59.995Z,68.90
2019-04-28T08:54:28.694Z,68.60
2019-04-28T08:56:57.446Z,67.50
2019-04-28T08:59:26.277Z,67.30
2019-04-28T09:01:54.945Z,68.70
2019-04-28T09:04:23.767Z,66.90
2019-04-28T09:06:52.443Z,67.40
2019-04-28T09:09:21.747Z,67.50
2019-04-28T09:11:50.484Z,65.30
2019-04-28T09:14:19.193Z,65.70
2019-04-28T09:16:48.006Z,64.40
2019-04-28T09:19:16.751Z,64.50
2019-04-28T09:21:45.612Z,65.30
2019-04-28T09:24:14.308Z,63.90
2019-04-28T09:26:42.965Z,61.40
2019-04-28T09:29:11.727Z,62.90
2019-04-28T09:31:40.434Z,62.70
2019-04-28T09:34:09.281Z,61.90
2019-04-28T09:36:38.052Z,61.20
2019-04-28T09:39:09.209Z,60.50
2019-04-28T09:41:39.591Z,60.50
2019-04-28T09:44:12.664Z,62.20
2019-04-28T09:46:43.215Z,61.40
2019-04-28T09:49:11.801Z,62.40
2019-04-28T09:51:40.779Z,60.50
2019-04-28T09:54:09.554Z,58.80
2019-04-28T09:56:38.267Z,58.10
2019-04-28T09:59:06.982Z,58.10
2019-04-28T10:01:35.679Z,58.10
2019-04-28T10:04:04.507Z,58.00
2019-04-28T10:06:33.231Z,57.30
2019-04-28T10:09:02.622Z,59.00
2019-04-28T10:11:31.345Z,59.10
2019-04-28T10:14:01.446Z,58.80
2019-04-28T10:16:30.178Z,57.50
2019-04-28T10:18:58.762Z,58.10
2019-04-28T10:21:27.657Z,57.40
2019-04-28T10:23:56.344Z,57.90
2019-04-28T10:26:25.066Z,57.70
2019-04-28T10:28:53.754Z,58.00
2019-04-28T10:31:22.523Z,56.30
2019-04-28T10:33:52.876Z,57.00
2019-04-28T10:36:21.575Z,56.50
2019-04-28T10:38:52.624Z,57.00
2019-04-28T10:41:28.947Z,58.40
2019-04-28T10:43:57.577Z,57.60
2019-04-28T10:46:26.364Z,58.40
2019-04-28T10:48:55.057Z,57.30
2019-04-28T10:51:23.793Z,57.80
2019-04-28T10:53:52.449Z,58.00
2019-04-28T10:56:21.103Z,56.60
2019-04-28T10:58:51.347Z,56.30
2019-04-28T11:01:20.002Z,55.90
2019-04-28T11:03:50.295Z,57.00
2019-04-28T11:06:19.282Z,57.10
2019-04-28T11:09:08.112Z,58.00
2019-04-28T11:11:36.943Z,57.40
2019-04-28T11:14:05.591Z,58.10
2019-04-28T11:16:35.162Z,57.20
2019-04-28T11:19:04.664Z,57.60
2019-04-28T11:21:33.307Z,58.20
2019-04-28T11:24:01.880Z,57.90
2019-04-28T11:26:30.624Z,58.40
2019-04-28T11:28:59.311Z,57.80
2019-04-28T11:31:27.973Z,58.90
2019-04-28T11:33:59.954Z,56.60
2019-04-28T11:36:28.799Z,56.10
2019-04-28T11:38:57.543Z,56.60
2019-04-28T11:41:26.251Z,56.40
2019-04-28T11:43:54.952Z,55.50
2019-04-28T11:46:26.019Z,54.40
2019-04-28T11:48:54.631Z,53.60
2019-04-28T11:51:23.495Z,54.20
2019-04-28T11:53:52.200Z,54.30
2019-04-28T11:56:20.897Z,55.10
2019-04-28T11:58:49.619Z,55.50
2019-04-28T12:01:19.816Z,54.60
2019-04-28T12:03:50.099Z,55.60
2019-04-28T12:06:18.812Z,55.70
2019-04-28T12:08:49.083Z,55.80
2019-04-28T12:11:22.443Z,56.10
2019-04-28T12:13:55.707Z,55.30
2019-04-28T12:16:37.891Z,56.40
2019-04-28T12:19:14.326Z,56.40
2019-04-28T12:21:43.147Z,54.60
2019-04-28T12:24:11.946Z,55.30
2019-04-28T12:26:40.724Z,54.40
2019-04-28T12:29:09.395Z,55.00
2019-04-28T12:31:37.891Z,56.60
2019-04-28T12:34:06.796Z,56.50
2019-04-28T12:36:35.351Z,56.00
2019-04-28T12:39:05.815Z,56.30
2019-04-28T12:41:34.581Z,56.10
2019-04-28T12:44:03.316Z,56.10
2019-04-28T12:46:32.003Z,55.80
2019-04-28T12:49:02.371Z,54.60
2019-04-28T12:51:30.932Z,54.50
2019-04-28T12:54:01.231Z,54.40
2019-04-28T12:56:30.628Z,54.80
2019-04-28T12:59:00.996Z,54.90
2019-04-28T13:01:34.095Z,54.70
2019-04-28T13:04:11.700Z,54.60
2019-04-28T13:06:45.785Z,54.60
2019-04-28T13:09:14.472Z,53.60
2019-04-28T13:11:43.344Z,54.30
2019-04-28T13:14:12.031Z,53.90
2019-04-28T13:16:40.585Z,53.70
2019-04-28T13:19:09.324Z,53.50
2019-04-28T13:21:38.061Z,51.80
2019-04-28T13:24:06.739Z,51.80
2019-04-28T13:26:35.444Z,52.40
2019-04-28T13:29:04.232Z,52.30
2019-04-28T13:31:32.863Z,51.40
2019-04-28T13:34:02.318Z,51.80
2019-04-28T13:36:50.802Z,54.00
2019-04-28T13:39:37.803Z,54.00
2019-04-28T13:42:06.562Z,54.00
2019-04-28T13:44:53.187Z,52.70
2019-04-28T13:47:22.385Z,51.40
2019-04-28T13:49:55.171Z,52.10
2019-04-28T13:52:23.805Z,51.80
2019-04-28T13:54:57.040Z,52.30
2019-04-28T13:57:25.761Z,53.30
2019-04-28T13:59:59.231Z,51.70
2019-04-28T14:02:32.342Z,51.50
2019-04-28T14:05:14.325Z,51.50
2019-04-28T14:07:42.977Z,51.50
2019-04-28T14:10:11.822Z,52.30
2019-04-28T14:12:40.740Z,53.10
2019-04-28T14:15:09.844Z,52.80
2019-04-28T14:17:38.496Z,52.00
2019-04-28T14:20:07.771Z,50.80
2019-04-28T14:22:36.516Z,49.80
2019-04-28T14:25:06.988Z,49.60
2019-04-28T14:27:35.763Z,49.70
2019-04-28T14:30:06.790Z,49.60
2019-04-28T14:32:35.497Z,49.80
2019-04-28T14:35:05.879Z,50.60
2019-04-28T14:37:34.610Z,50.70
2019-04-28T14:40:04.669Z,50.70
2019-04-28T14:42:33.409Z,51.80
2019-04-28T14:45:02.204Z,51.40
2019-04-28T14:47:30.941Z,50.90
2019-04-28T14:50:02.688Z,51.00
2019-04-28T14:52:30.128Z,51.10
2019-04-28T14:54:58.911Z,51.80
2019-04-28T14:57:27.711Z,50.80
2019-04-28T14:59:58.188Z,49.10
2019-04-28T15:02:31.379Z,48.00
2019-04-28T15:05:01.992Z,49.00
2019-04-28T15:07:48.467Z,48.80
2019-04-28T15:10:31.336Z,50.00
2019-04-28T15:13:00.282Z,48.30
2019-04-28T15:15:29.101Z,50.10
2019-04-28T15:17:57.721Z,49.70
2019-04-28T15:20:26.443Z,51.30
2019-04-28T15:22:55.256Z,51.80
2019-04-28T15:25:23.997Z,52.20
2019-04-28T15:27:52.819Z,52.50
2019-04-28T15:30:21.944Z,52.20
2019-04-28T15:32:50.515Z,53.40
2019-04-28T15:35:19.216Z,54.30
2019-04-28T15:37:47.838Z,55.20
2019-04-28T15:40:16.579Z,54.20
2019-04-28T15:42:45.296Z,52.30
2019-04-28T15:45:14.245Z,51.60
2019-04-28T15:47:42.995Z,52.30
2019-04-28T15:50:11.941Z,53.50
2019-04-28T15:52:44.016Z,54.20
2019-04-28T15:55:14.680Z,53.50
2019-04-28T15:57:43.371Z,54.00
2019-04-28T16:00:14.263Z,54.40
2019-04-28T16:02:42.942Z,53.10
2019-04-28T16:05:11.919Z,52.60
2019-04-28T16:07:40.553Z,52.10
2019-04-28T16:10:09.255Z,50.70
2019-04-28T16:12:37.842Z,50.30
2019-04-28T16:15:07.765Z,51.30
2019-04-28T16:17:36.475Z,51.30
2019-04-28T16:23:01.011Z,52.00
2019-04-28T16:25:30.011Z,52.60
2019-04-28T16:27:58.719Z,52.90
2019-04-28T16:30:27.471Z,51.90
2019-04-28T16:32:56.244Z,52.00
2019-04-28T16:35:25.012Z,52.10
2019-04-28T16:37:53.790Z,51.70
2019-04-28T16:40:23.174Z,51.70
2019-04-28T16:42:51.804Z,51.90
2019-04-28T16:45:21.209Z,52.50
2019-04-28T16:47:49.835Z,52.70
2019-04-28T16:50:18.639Z,52.50
2019-04-28T16:52:48.127Z,51.70
2019-04-28T16:55:24.209Z,53.00
2019-04-28T16:58:12.908Z,53.50
2019-04-28T17:00:46.167Z,52.60
2019-04-28T17:03:14.887Z,54.00
2019-04-28T17:05:43.544Z,53.50
2019-04-28T17:08:12.234Z,53.70
2019-04-28T17:10:40.875Z,53.70
2019-04-28T17:13:09.592Z,53.40
2019-04-28T17:15:38.321Z,53.30
2019-04-28T17:18:07.049Z,53.40
2019-04-28T17:20:35.689Z,53.00
2019-04-28T17:23:04.496Z,53.30
2019-04-28T17:25:33.322Z,53.00
2019-04-28T17:28:02.099Z,52.90
2019-04-28T17:30:31.072Z,52.60
2019-04-28T17:32:59.702Z,54.90
2019-04-28T17:35:28.424Z,55.80
2019-04-28T17:38:06.367Z,56.00
2019-04-28T17:40:28.288Z,55.10
2019-04-28T17:42:56.969Z,54.30
2019-04-28T17:45:26.042Z,54.60
2019-04-28T17:47:56.387Z,54.10
2019-04-28T17:50:25.370Z,54.50
2019-04-28T17:52:54.263Z,54.30
2019-04-28T17:55:23.012Z,54.30
2019-04-28T17:57:51.708Z,54.30
2019-04-28T18:00:27.999Z,54.00
2019-04-28T18:03:07.318Z,54.30
2019-04-28T18:05:43.274Z,54.90
2019-04-28T18:08:20.754Z,54.70
2019-04-28T18:10:42.599Z,54.30
2019-04-28T18:13:11.493Z,54.40
2019-04-28T18:15:41.847Z,54.10
2019-04-28T18:18:24.446Z,54.00
2019-04-28T18:20:57.281Z,54.20
2019-04-28T18:23:26.048Z,54.10
2019-04-28T18:25:54.631Z,54.80
2019-04-28T18:28:23.341Z,55.30
2019-04-28T18:30:56.354Z,55.30
2019-04-28T18:33:32.455Z,55.40
2019-04-28T18:36:02.758Z,55.30
2019-04-28T18:38:35.173Z,55.60
2019-04-28T18:41:11.377Z,55.00
2019-04-28T18:43:57.985Z,54.80
2019-04-28T18:46:28.273Z,55.50
2019-04-28T18:48:56.982Z,55.10
2019-04-28T18:51:25.832Z,55.50
2019-04-28T18:53:54.579Z,54.80
2019-04-28T18:56:23.196Z,54.80
2019-04-28T18:58:51.844Z,54.90
2019-04-28T19:01:34.492Z,55.50
2019-04-28T19:04:03.490Z,55.60
2019-04-28T19:06:32.125Z,55.60
2019-04-28T19:09:02.437Z,55.80
2019-04-28T19:11:39.003Z,56.00
2019-04-28T19:14:25.444Z,56.30
2019-04-28T19:17:11.130Z,55.90
2019-04-28T19:19:41.579Z,56.60
2019-04-28T19:22:10.367Z,57.60
2019-04-28T19:24:39.048Z,58.10
2019-04-28T19:27:07.775Z,58.00
2019-04-28T19:29:36.595Z,58.00
2019-04-28T19:32:05.293Z,58.60
2019-04-28T19:34:34.063Z,58.80
2019-04-28T19:37:02.888Z,58.60
2019-04-28T19:39:31.542Z,59.50
2019-04-28T19:42:00.284Z,58.90
2019-04-28T19:44:28.909Z,59.00
2019-04-28T19:46:57.541Z,59.20
2019-04-28T19:49:26.221Z,59.20
2019-04-28T19:51:54.925Z,59.20
2019-04-28T19:54:25.183Z,59.20
2019-04-28T19:56:55.543Z,59.40
2019-04-28T19:59:25.839Z,61.00
2019-04-28T20:01:54.474Z,60.30
2019-04-28T20:04:23.291Z,60.60
2019-04-28T20:06:51.999Z,61.00
2019-04-28T20:09:20.768Z,60.60
2019-04-28T20:11:49.396Z,61.10
2019-04-28T20:14:37.780Z,61.00
2019-04-28T20:17:06.448Z,61.20
2019-04-28T20:19:35.146Z,61.40
2019-04-28T20:22:03.769Z,61.40
2019-04-28T20:24:32.423Z,60.70
2019-04-28T20:27:01.039Z,60.60
2019-04-28T20:29:29.776Z,60.80
2019-04-28T20:31:58.554Z,61.00
2019-04-28T20:34:27.256Z,63.10
2019-04-28T20:36:57.588Z,64.30
2019-04-28T20:39:31.053Z,63.50
2019-04-28T20:42:01.406Z,63.60
2019-04-28T20:44:30.037Z,62.20
2019-04-28T20:46:58.828Z,62.30
2019-04-28T20:49:27.460Z,62.00
2019-04-28T20:51:56.137Z,61.40
2019-04-28T20:54:26.427Z,61.10
2019-04-28T20:56:55.049Z,62.10
2019-04-28T20:59:23.788Z,60.40
2019-04-28T21:01:52.444Z,60.30
2019-04-28T21:04:21.127Z,59.60
2019-04-28T21:06:49.688Z,59.20
2019-04-28T21:09:18.328Z,59.10
2019-04-28T21:11:47.072Z,60.00
2019-04-28T21:14:16.917Z,59.20
2019-04-28T21:16:45.749Z,59.30
2019-04-28T21:19:14.550Z,59.50
2019-04-28T21:21:43.230Z,59.80
2019-04-28T21:24:11.998Z,60.00
2019-04-28T21:26:40.920Z,59.40
2019-04-28T21:29:09.629Z,60.00
2019-04-28T21:31:38.384Z,61.40
2019-04-28T21:34:06.995Z,60.90
2019-04-28T21:36:35.561Z,61.60
2019-04-28T21:39:08.104Z,60.30
2019-04-28T21:41:36.658Z,60.20
2019-04-28T21:44:16.204Z,60.20
2019-04-28T21:46:49.044Z,59.70
2019-04-28T21:49:19.328Z,61.80
2019-04-28T21:51:48.326Z,61.90
2019-04-28T21:54:16.919Z,62.90
2019-04-28T21:56:45.537Z,63.90
2019-04-28T21:59:15.747Z,62.50
2019-04-28T22:01:44.814Z,63.50
2019-04-28T22:04:13.563Z,63.70
2019-04-28T22:06:42.400Z,63.90
2019-04-28T22:09:11.374Z,63.90
2019-04-28T22:11:40.219Z,62.80
2019-04-28T22:14:08.954Z,62.20
2019-04-28T22:16:37.587Z,62.00
2019-04-28T22:19:06.222Z,61.20
2019-04-28T22:21:34.867Z,60.60
2019-04-28T22:24:08.124Z,61.20
2019-04-28T22:26:44.260Z,61.80
2019-04-28T22:29:13.554Z,62.00
2019-04-28T22:31:43.236Z,61.60
2019-04-28T22:34:13.528Z,62.30
2019-04-28T22:36:43.619Z,61.80
2019-04-28T22:39:13.018Z,61.30
2019-04-28T22:41:41.731Z,60.40
2019-04-28T22:44:11.162Z,61.40
2019-04-28T22:46:39.857Z,61.60
2019-04-28T22:49:08.892Z,61.50
2019-04-28T22:51:37.658Z,61.50
2019-04-28T22:54:08.115Z,61.50
2019-04-28T22:56:38.460Z,61.40
2019-04-28T22:59:08.884Z,61.00
2019-04-28T23:01:51.109Z,62.50
2019-04-28T23:04:30.541Z,62.20
2019-04-28T23:06:59.265Z,63.60
2019-04-28T23:09:28.594Z,63.80
2019-04-28T23:11:57.371Z,63.20
2019-04-28T23:14:26.023Z,64.60
2019-04-28T23:16:54.648Z,63.80
2019-04-28T23:19:24.941Z,63.60
2019-04-28T23:21:57.996Z,63.90
2019-04-28T23:24:26.650Z,63.20
2019-04-28T23:26:55.268Z,63.20
2019-04-28T23:29:23.911Z,63.00
2019-04-28T23:31:52.703Z,62.10
2019-04-28T23:34:21.782Z,63.30
2019-04-28T23:36:50.421Z,64.10
2019-04-28T23:39:19.041Z,63.30
2019-04-28T23:42:04.382Z,64.70
2019-04-28T23:44:33.041Z,64.70
2019-04-28T23:47:02.534Z,64.30
2019-04-28T23:49:31.522Z,64.20
2019-04-28T23:52:11.094Z,64.50
2019-04-28T23:54:50.303Z,63.90
2019-04-28T23:57:18.954Z,65.60
2019-04-28T23:59:47.647Z,66.70
